createdAt,value
2018-10-18T00:02:11.229Z,70.77
2018-10-18T00:04:43.494Z,65.33
2018-10-18T00:07:15.362Z,66.30
2018-10-18T00:09:46.798Z,68.10
2018-10-18T00:12:18.658Z,68.87
2018-10-18T00:14:49.874Z,66.40
2018-10-18T00:17:27.086Z,76.73
2018-10-18T00:19:59.532Z,73.03
2018-10-18T00:22:31.707Z,71.73
2018-10-18T00:25:03.943Z,67.50
2018-10-18T00:27:35.753Z,69.50
2018-10-18T00:30:11.267Z,71.10
2018-10-18T00:32:44.145Z,76.97
2018-10-18T00:35:16.020Z,74.33
2018-10-18T00:37:47.776Z,72.90
2018-10-18T00:40:18.950Z,81.23
2018-10-18T00:42:50.644Z,77.50
2018-10-18T00:45:23.058Z,77.63
2018-10-18T00:47:54.990Z,72.20
2018-10-18T00:50:27.099Z,76.17
2018-10-18T00:52:58.770Z,82.17
2018-10-18T00:55:30.747Z,80.60
2018-10-18T00:58:01.895Z,83.37
2018-10-18T01:00:33.756Z,81.70
2018-10-18T01:03:06.886Z,74.70
2018-10-18T01:05:39.638Z,78.93
2018-10-18T01:08:11.927Z,77.63
2018-10-18T01:10:44.412Z,79.47
2018-10-18T01:13:16.194Z,76.73
2018-10-18T01:15:48.670Z,80.77
2018-10-18T01:18:21.254Z,75.77
2018-10-18T01:20:53.132Z,80.87
2018-10-18T01:23:24.694Z,77.87
2018-10-18T01:25:56.401Z,80.00
2018-10-18T01:28:28.418Z,76.73
2018-10-18T01:31:00.102Z,77.47
2018-10-18T01:33:31.984Z,82.33
2018-10-18T01:36:03.450Z,75.87
2018-10-18T01:38:35.170Z,73.50
2018-10-18T01:41:06.440Z,74.47
2018-10-18T01:43:38.912Z,77.77
2018-10-18T01:46:10.742Z,72.00
2018-10-18T01:48:42.312Z,79.10
2018-10-18T01:51:14.058Z,81.30
2018-10-18T01:53:45.035Z,77.93
2018-10-18T01:56:16.814Z,75.77
2018-10-18T01:58:49.172Z,74.80
2018-10-18T02:01:20.267Z,77.90
2018-10-18T02:03:52.024Z,79.70
2018-10-18T02:06:23.404Z,77.57
2018-10-18T02:08:54.496Z,77.23
2018-10-18T02:11:26.310Z,77.63
2018-10-18T02:13:58.064Z,79.70
2018-10-18T02:16:30.221Z,78.50
2018-10-18T02:19:02.032Z,77.27
2018-10-18T02:21:34.360Z,77.50
2018-10-18T02:24:07.038Z,79.57
2018-10-18T02:26:39.064Z,74.83
2018-10-18T02:29:10.239Z,73.97
2018-10-18T02:31:42.122Z,76.03
2018-10-18T02:34:13.930Z,79.60
2018-10-18T02:36:45.970Z,78.37
2018-10-18T02:39:17.810Z,77.23
2018-10-18T02:41:49.137Z,78.60
2018-10-18T02:44:20.969Z,77.00
2018-10-18T02:46:52.794Z,81.63
2018-10-18T02:49:24.478Z,82.07
2018-10-18T02:51:56.225Z,83.57
2018-10-18T02:54:27.382Z,80.37
2018-10-18T02:56:59.642Z,85.40
2018-10-18T02:59:31.360Z,83.37
2018-10-18T03:02:03.066Z,81.00
2018-10-18T03:04:35.316Z,81.87
2018-10-18T03:07:07.546Z,86.63
2018-10-18T03:09:39.980Z,82.30
2018-10-18T03:12:11.965Z,82.83
2018-10-18T03:14:44.456Z,85.70
2018-10-18T03:17:16.193Z,88.80
2018-10-18T03:19:48.571Z,82.77
2018-10-18T03:22:20.614Z,83.57
2018-10-18T03:24:52.467Z,82.57
2018-10-18T03:27:24.349Z,80.87
2018-10-18T03:29:55.461Z,87.23
2018-10-18T03:32:28.131Z,81.60
2018-10-18T03:35:01.112Z,82.57
2018-10-18T03:37:32.732Z,92.43
2018-10-18T03:40:04.745Z,88.70
2018-10-18T03:42:36.563Z,91.80
2018-10-18T03:45:08.369Z,85.87
2018-10-18T03:47:39.811Z,88.93
2018-10-18T03:50:11.860Z,90.83
2018-10-18T03:52:43.697Z,90.57
2018-10-18T03:55:15.572Z,87.10
2018-10-18T03:57:47.909Z,93.23
2018-10-18T04:00:18.442Z,90.53
2018-10-18T04:02:49.847Z,91.70
2018-10-18T04:05:21.805Z,95.50
2018-10-18T04:07:53.770Z,88.37
2018-10-18T04:10:24.718Z,92.60
2018-10-18T04:12:55.829Z,87.77
2018-10-18T04:15:27.782Z,91.30
2018-10-18T04:17:59.884Z,93.60
2018-10-18T04:20:30.398Z,90.03
2018-10-18T04:23:01.614Z,96.27
2018-10-18T04:25:34.337Z,87.77
2018-10-18T04:28:06.625Z,84.97
2018-10-18T04:30:37.896Z,90.30
2018-10-18T04:33:09.087Z,92.60
2018-10-18T04:35:41.028Z,84.27
2018-10-18T04:38:11.878Z,90.03
2018-10-18T04:40:43.271Z,88.17
2018-10-18T04:43:14.808Z,93.77
2018-10-18T04:45:46.660Z,89.87
2018-10-18T04:48:18.078Z,87.00
2018-10-18T04:50:48.628Z,89.07
2018-10-18T04:53:20.663Z,85.33
2018-10-18T04:55:52.764Z,83.77
2018-10-18T04:58:24.319Z,92.47
2018-10-18T05:00:55.649Z,89.60
2018-10-18T05:03:28.320Z,90.10
2018-10-18T05:06:02.188Z,89.27
2018-10-18T05:08:33.307Z,89.97
2018-10-18T05:11:05.015Z,92.33
2018-10-18T05:13:36.914Z,86.97
2018-10-18T05:16:08.863Z,92.77
2018-10-18T05:18:40.125Z,88.43
2018-10-18T05:21:11.513Z,88.23
2018-10-18T05:23:43.781Z,90.17
2018-10-18T05:26:14.416Z,93.13
2018-10-18T05:28:45.040Z,95.97
2018-10-18T05:31:16.413Z,90.97
2018-10-18T05:33:48.476Z,95.43
2018-10-18T05:36:19.850Z,97.70
2018-10-18T05:38:50.388Z,84.23
2018-10-18T05:41:21.147Z,90.70
2018-10-18T05:43:52.852Z,97.07
2018-10-18T05:46:24.118Z,89.90
2018-10-18T05:48:55.402Z,98.00
2018-10-18T05:51:27.527Z,98.20
2018-10-18T05:53:59.987Z,97.47
2018-10-18T05:56:31.218Z,91.37
2018-10-18T05:59:02.691Z,95.30
2018-10-18T06:01:34.205Z,97.03
2018-10-18T06:04:06.796Z,100.93
2018-10-18T06:06:38.216Z,104.90
2018-10-18T06:09:12.241Z,105.73
2018-10-18T06:11:43.402Z,107.77
2018-10-18T06:14:14.626Z,100.97
2018-10-18T06:16:45.376Z,100.67
2018-10-18T06:19:17.319Z,104.10
2018-10-18T06:21:49.486Z,105.50
2018-10-18T06:24:21.034Z,107.93
2018-10-18T06:26:52.751Z,109.03
2018-10-18T06:29:24.212Z,118.63
2018-10-18T06:31:56.241Z,123.83
2018-10-18T06:34:29.021Z,138.63
2018-10-18T06:37:00.477Z,135.53
2018-10-18T06:39:32.765Z,146.53
2018-10-18T06:42:04.901Z,136.73
2018-10-18T06:44:36.229Z,148.93
2018-10-18T06:47:08.081Z,152.10
2018-10-18T06:49:39.832Z,153.50
2018-10-18T06:52:10.508Z,148.77
2018-10-18T06:54:42.683Z,151.77
2018-10-18T06:57:14.308Z,160.07
2018-10-18T06:59:44.925Z,165.03
2018-10-18T07:02:16.434Z,179.80
2018-10-18T07:04:47.948Z,188.17
2018-10-18T07:07:18.310Z,187.07
2018-10-18T07:09:48.952Z,191.03
2018-10-18T07:12:20.390Z,194.97
2018-10-18T07:14:50.962Z,210.40
2018-10-18T07:17:23.119Z,191.03
2018-10-18T07:19:54.587Z,194.30
2018-10-18T07:22:26.048Z,199.73
2018-10-18T07:24:57.441Z,218.87
2018-10-18T07:27:29.382Z,208.27
2018-10-18T07:30:01.149Z,209.07
2018-10-18T07:32:32.426Z,184.53
2018-10-18T07:35:03.942Z,171.40
2018-10-18T07:37:36.664Z,169.30
2018-10-18T07:40:10.925Z,148.60
2018-10-18T07:42:42.226Z,147.53
2018-10-18T07:45:14.255Z,130.33
2018-10-18T07:47:45.788Z,127.63
2018-10-18T07:50:17.087Z,133.87
2018-10-18T07:52:48.481Z,115.97
2018-10-18T07:55:19.977Z,111.93
2018-10-18T07:57:50.592Z,103.73
2018-10-18T08:00:22.249Z,107.13
2018-10-18T08:02:53.763Z,104.90
2018-10-18T08:05:25.643Z,96.27
2018-10-18T08:07:57.019Z,88.77
2018-10-18T08:10:27.668Z,86.97
2018-10-18T08:12:58.278Z,83.10
2018-10-18T08:15:29.534Z,76.77
2018-10-18T08:18:00.399Z,74.90
2018-10-18T08:20:33.100Z,79.33
2018-10-18T08:23:04.790Z,76.43
2018-10-18T08:25:37.316Z,74.97
2018-10-18T08:28:09.714Z,72.23
2018-10-18T08:30:41.484Z,61.80
2018-10-18T08:33:13.016Z,59.23
2018-10-18T08:35:44.925Z,51.33
2018-10-18T08:38:17.468Z,50.80
2018-10-18T08:40:48.729Z,44.07
2018-10-18T08:43:21.227Z,43.17
2018-10-18T08:45:54.599Z,46.37
2018-10-18T08:48:25.333Z,44.77
2018-10-18T08:50:56.782Z,39.23
2018-10-18T08:53:28.870Z,43.47
2018-10-18T08:56:01.224Z,44.87
2018-10-18T08:58:32.918Z,45.23
2018-10-18T09:01:04.654Z,39.77
2018-10-18T09:03:35.488Z,45.33
2018-10-18T09:06:06.442Z,42.37
2018-10-18T09:08:37.012Z,46.47
2018-10-18T09:11:09.247Z,43.83
2018-10-18T09:13:42.337Z,49.47
2018-10-18T09:16:15.606Z,45.53
2018-10-18T09:18:47.930Z,47.73
2018-10-18T09:21:18.956Z,47.77
2018-10-18T09:23:50.400Z,45.23
2018-10-18T09:26:22.825Z,49.87
2018-10-18T09:28:55.293Z,54.10
2018-10-18T09:31:26.703Z,55.30
2018-10-18T09:33:58.058Z,52.33
2018-10-18T09:36:30.568Z,63.30
2018-10-18T09:39:01.370Z,54.97
2018-10-18T09:41:32.960Z,63.53
2018-10-18T09:44:06.309Z,53.37
2018-10-18T09:46:37.879Z,56.33
2018-10-18T09:49:09.142Z,56.20
2018-10-18T09:51:41.380Z,62.50
2018-10-18T09:54:12.364Z,58.80
2018-10-18T09:56:43.792Z,113.20
2018-10-18T09:59:14.342Z,62.90
2018-10-18T10:01:52.810Z,64.60
2018-10-18T10:04:24.455Z,58.93
2018-10-18T10:06:56.553Z,55.33
2018-10-18T10:09:28.274Z,60.57
2018-10-18T10:11:59.686Z,56.23
2018-10-18T10:14:30.451Z,54.30
2018-10-18T10:17:01.807Z,73.43
2018-10-18T10:19:33.218Z,54.30
2018-10-18T10:22:05.056Z,57.47
2018-10-18T10:24:36.695Z,57.03
2018-10-18T10:27:10.376Z,55.37
2018-10-18T10:29:42.341Z,53.73
2018-10-18T10:32:14.246Z,57.07
2018-10-18T10:34:47.054Z,54.97
2018-10-18T10:37:20.022Z,55.93
2018-10-18T10:39:51.414Z,57.37
2018-10-18T10:42:23.960Z,55.93
2018-10-18T10:44:56.427Z,58.10
2018-10-18T10:47:28.240Z,57.77
2018-10-18T10:50:00.275Z,60.30
2018-10-18T10:52:31.690Z,59.77
2018-10-18T10:55:02.933Z,54.35
2018-10-18T10:57:35.459Z,56.37
2018-10-18T11:00:07.902Z,55.10
2018-10-18T11:02:40.070Z,57.87
2018-10-18T11:05:12.685Z,55.07
2018-10-18T11:07:44.301Z,60.28
2018-10-18T11:10:14.822Z,58.55
2018-10-18T11:12:46.432Z,61.50
2018-10-18T11:15:18.498Z,57.60
2018-10-18T11:17:49.234Z,57.35
2018-10-18T11:20:20.667Z,56.50
2018-10-18T11:22:52.007Z,55.37
2018-10-18T11:25:24.560Z,61.90
2018-10-18T11:27:56.731Z,66.07
2018-10-18T11:30:28.015Z,58.63
2018-10-18T11:32:59.446Z,60.17
2018-10-18T11:35:31.185Z,66.00
2018-10-18T11:38:03.907Z,55.03
2018-10-18T11:40:35.493Z,59.08
2018-10-18T11:43:07.338Z,55.33
2018-10-18T11:45:39.484Z,56.70
2018-10-18T11:48:13.155Z,62.20
2018-10-18T11:50:45.131Z,59.23
2018-10-18T11:53:17.804Z,63.67
2018-10-18T11:55:50.058Z,61.63
2018-10-18T11:58:22.038Z,61.42
2018-10-18T12:00:53.298Z,56.37
2018-10-18T12:03:25.969Z,57.75
2018-10-18T12:05:58.609Z,56.23
2018-10-18T12:08:29.894Z,56.70
2018-10-18T12:11:01.278Z,60.30
2018-10-18T12:13:32.762Z,58.95
2018-10-18T12:16:04.708Z,57.78
2018-10-18T12:18:36.990Z,54.75
2018-10-18T12:21:08.550Z,48.20
2018-10-18T12:23:39.719Z,51.30
2018-10-18T12:26:11.544Z,49.70
2018-10-18T12:28:42.873Z,51.08
2018-10-18T12:31:14.097Z,54.37
2018-10-18T12:33:46.052Z,54.30
2018-10-18T12:36:17.341Z,56.90
2018-10-18T12:38:50.002Z,54.53
2018-10-18T12:41:22.292Z,60.25
2018-10-18T12:43:53.766Z,50.95
2018-10-18T12:46:25.317Z,52.90
2018-10-18T12:48:56.748Z,53.90
2018-10-18T12:51:29.240Z,53.70
2018-10-18T12:54:01.779Z,52.50
2018-10-18T12:56:34.395Z,52.95
2018-10-18T12:59:07.315Z,52.23
2018-10-18T13:01:39.104Z,56.48
2018-10-18T13:04:10.811Z,56.15
2018-10-18T13:06:43.040Z,56.18
2018-10-18T13:09:14.376Z,52.97
2018-10-18T13:11:46.242Z,54.90
2018-10-18T13:14:17.674Z,51.98
2018-10-18T13:16:49.170Z,55.33
2018-10-18T13:19:21.142Z,55.55
2018-10-18T13:21:53.263Z,52.00
2018-10-18T13:24:24.744Z,51.90
2018-10-18T13:26:56.299Z,53.17
2018-10-18T13:29:29.235Z,59.10
2018-10-18T13:32:01.579Z,58.10
2018-10-18T13:34:33.376Z,60.00
2018-10-18T13:37:04.886Z,66.30
2018-10-18T13:39:36.947Z,74.97
2018-10-18T13:42:10.118Z,76.63
2018-10-18T13:44:42.243Z,84.37
2018-10-18T13:47:14.097Z,72.63
2018-10-18T13:49:46.936Z,86.60
2018-10-18T13:52:18.440Z,82.13
2018-10-18T13:54:49.897Z,80.63
2018-10-18T13:57:22.520Z,89.03
2018-10-18T14:00:04.253Z,87.80
2018-10-18T14:02:35.450Z,84.30
2018-10-18T14:05:07.136Z,82.13
2018-10-18T14:07:39.000Z,88.17
2018-10-18T14:10:10.799Z,84.33
2018-10-18T14:12:44.220Z,88.00
2018-10-18T14:15:16.403Z,88.70
2018-10-18T14:17:47.762Z,100.80
2018-10-18T14:20:19.042Z,95.37
2018-10-18T14:22:50.986Z,90.97
2018-10-18T14:25:22.975Z,90.73
2018-10-18T14:27:55.232Z,96.43
2018-10-18T14:30:26.767Z,98.43
2018-10-18T14:32:58.284Z,92.57
2018-10-18T14:35:30.427Z,102.67
2018-10-18T14:38:02.492Z,95.77
2018-10-18T14:40:33.905Z,105.23
2018-10-18T14:43:06.187Z,92.53
2018-10-18T14:45:37.707Z,96.57
2018-10-18T14:48:09.932Z,99.80
2018-10-18T14:50:42.004Z,104.47
2018-10-18T14:53:12.848Z,102.13
2018-10-18T14:55:47.397Z,101.90
2018-10-18T14:58:19.445Z,111.70
2018-10-18T15:00:50.851Z,111.90
2018-10-18T15:03:22.143Z,109.83
2018-10-18T15:05:54.051Z,108.70
2018-10-18T15:08:25.576Z,108.37
2018-10-18T15:10:57.468Z,125.37
2018-10-18T15:13:29.585Z,119.17
2018-10-18T15:16:01.774Z,112.73
2018-10-18T15:18:32.992Z,125.27
2018-10-18T15:21:05.868Z,120.77
2018-10-18T15:23:38.402Z,125.93
2018-10-18T15:26:11.340Z,126.60
2018-10-18T15:28:43.217Z,127.13
2018-10-18T15:31:14.047Z,124.77
2018-10-18T15:33:47.141Z,135.90
2018-10-18T15:36:18.680Z,127.33
2018-10-18T15:38:49.329Z,130.90
2018-10-18T15:41:21.808Z,122.83
2018-10-18T15:43:54.199Z,125.40
2018-10-18T15:46:25.815Z,128.77
2018-10-18T15:48:57.325Z,134.00
2018-10-18T15:51:29.839Z,131.70
2018-10-18T15:54:02.931Z,131.50
2018-10-18T15:56:34.440Z,141.13
2018-10-18T15:59:06.988Z,137.30
2018-10-18T16:01:39.777Z,141.20
2018-10-18T16:04:11.805Z,147.00
2018-10-18T16:06:43.318Z,136.57
2018-10-18T16:09:14.801Z,138.97
2018-10-18T16:11:46.765Z,135.60
2018-10-18T16:14:19.593Z,141.53
2018-10-18T16:16:50.698Z,126.37
2018-10-18T16:19:25.268Z,136.90
2018-10-18T16:21:57.521Z,139.43
2018-10-18T16:24:28.742Z,135.50
2018-10-18T16:27:00.176Z,131.93
2018-10-18T16:29:32.077Z,130.03
2018-10-18T16:32:03.540Z,132.17
2018-10-18T16:34:35.034Z,124.90
2018-10-18T16:37:07.400Z,129.07
2018-10-18T16:39:39.615Z,125.20
2018-10-18T16:42:11.336Z,128.93
2018-10-18T16:44:44.290Z,133.50
2018-10-18T16:47:16.219Z,122.80
2018-10-18T16:49:47.538Z,120.90
2018-10-18T16:52:19.377Z,123.37
2018-10-18T16:54:51.375Z,126.17
2018-10-18T16:57:23.475Z,131.17
2018-10-18T16:59:55.771Z,125.90
2018-10-18T17:02:27.628Z,121.80
2018-10-18T17:04:59.146Z,123.20
2018-10-18T17:07:31.565Z,129.80
2018-10-18T17:10:04.167Z,126.23
2018-10-18T17:12:36.020Z,124.80
2018-10-18T17:15:07.780Z,125.13
2018-10-18T17:17:39.831Z,131.23
2018-10-18T17:20:13.809Z,129.23
2018-10-18T17:22:45.928Z,124.27
2018-10-18T17:25:18.605Z,130.27
2018-10-18T17:27:50.914Z,125.63
2018-10-18T17:30:23.195Z,130.23
2018-10-18T17:32:54.824Z,117.00
2018-10-18T17:35:25.935Z,124.93
2018-10-18T17:37:58.118Z,126.10
2018-10-18T17:40:29.888Z,161.97
2018-10-18T17:43:01.888Z,135.63
2018-10-18T17:45:34.589Z,146.60
2018-10-18T17:48:07.048Z,140.63
2018-10-18T17:50:39.066Z,137.30
2018-10-18T17:53:10.404Z,128.10
2018-10-18T17:55:44.906Z,147.03
2018-10-18T17:58:15.869Z,144.37
2018-10-18T18:00:48.703Z,146.87
2018-10-18T18:03:21.946Z,139.33
2018-10-18T18:05:54.170Z,140.80
2018-10-18T18:08:25.736Z,142.53
2018-10-18T18:10:57.079Z,132.70
2018-10-18T18:13:29.229Z,128.87
2018-10-18T18:16:01.304Z,136.47
2018-10-18T18:18:32.871Z,132.97
2018-10-18T18:21:04.837Z,140.60
2018-10-18T18:23:37.143Z,130.27
2018-10-18T18:26:09.053Z,134.60
